createdAt,value
2022-09-28T00:00:22.805Z,99.51
2022-09-28T00:01:22.848Z,98.59
2022-09-28T00:02:22.867Z,98.69
2022-09-28T00:03:22.774Z,98.49
2022-09-28T00:04:22.768Z,99.41
2022-09-28T00:05:22.755Z,98.49
2022-09-28T00:06:22.759Z,98.07
2022-09-28T00:07:22.746Z,97.97
2022-09-28T00:08:22.745Z,97.77
2022-09-28T00:09:22.737Z,97.66
2022-09-28T00:10:22.725Z,98.03
2022-09-28T00:11:22.747Z,97.41
2022-09-28T00:12:22.717Z,97.66
2022-09-28T00:13:22.704Z,97.25
2022-09-28T00:14:22.708Z,97.31
2022-09-28T00:15:22.699Z,98.13
2022-09-28T00:16:22.753Z,97.56
2022-09-28T00:17:22.672Z,97.66
2022-09-28T00:18:22.676Z,97.62
2022-09-28T00:19:22.664Z,98.18
2022-09-28T00:20:22.665Z,97.00
2022-09-28T00:21:22.648Z,97.31
2022-09-28T00:22:22.651Z,97.20
2022-09-28T00:23:22.633Z,97.36
2022-09-28T00:24:27.274Z,96.69
2022-09-28T00:25:24.647Z,96.22
2022-09-28T00:26:22.615Z,96.48
2022-09-28T00:27:22.607Z,96.48
2022-09-28T00:28:22.600Z,96.59
2022-09-28T00:29:23.609Z,95.97
2022-09-28T00:30:22.618Z,95.87
2022-09-28T00:31:22.602Z,96.80
2022-09-28T00:32:22.583Z,96.59
2022-09-28T00:33:22.566Z,96.59
2022-09-28T00:34:22.567Z,96.64
2022-09-28T00:35:22.629Z,96.59
2022-09-28T00:36:22.550Z,96.48
2022-09-28T00:37:22.539Z,96.64
2022-09-28T00:38:22.534Z,97.05
2022-09-28T00:39:22.530Z,96.80
2022-09-28T00:40:22.538Z,96.69
2022-09-28T00:41:22.531Z,96.59
2022-09-28T00:42:22.514Z,95.92
2022-09-28T00:43:22.498Z,96.18
2022-09-28T00:44:22.496Z,96.59
2022-09-28T00:45:22.487Z,96.59
2022-09-28T00:46:22.499Z,96.08
2022-09-28T00:47:22.472Z,96.02
2022-09-28T00:48:22.473Z,95.97
2022-09-28T00:49:22.455Z,96.22
2022-09-28T00:50:22.442Z,96.22
2022-09-28T00:51:22.466Z,96.59
2022-09-28T00:52:22.431Z,96.02
2022-09-28T00:53:22.429Z,96.53
2022-09-28T00:54:22.419Z,96.69
2022-09-28T00:55:22.419Z,96.69
2022-09-28T00:56:22.459Z,96.73
2022-09-28T00:57:22.415Z,96.39
2022-09-28T00:58:22.391Z,96.64
2022-09-28T00:59:22.387Z,96.39
2022-09-28T01:00:22.378Z,97.00
2022-09-28T01:01:22.412Z,96.94
2022-09-28T01:02:22.415Z,97.25
2022-09-28T01:03:22.356Z,97.41
2022-09-28T01:04:23.547Z,97.97
2022-09-28T01:05:22.346Z,97.66
2022-09-28T01:06:22.337Z,97.45
2022-09-28T01:07:22.346Z,98.18
2022-09-28T01:08:22.325Z,98.03
2022-09-28T01:09:22.314Z,98.38
2022-09-28T01:10:22.304Z,98.49
2022-09-28T01:11:22.307Z,98.59
2022-09-28T01:12:22.298Z,98.59
2022-09-28T01:13:22.295Z,98.59
2022-09-28T01:14:22.294Z,97.77
2022-09-28T01:15:22.279Z,98.28
2022-09-28T01:16:22.334Z,98.07
2022-09-28T01:17:22.279Z,97.77
2022-09-28T01:18:22.266Z,97.87
2022-09-28T01:19:22.250Z,98.07
2022-09-28T01:20:22.245Z,97.66
2022-09-28T01:21:22.234Z,98.38
2022-09-28T01:22:22.223Z,97.97
2022-09-28T01:23:22.231Z,98.18
2022-09-28T01:24:22.217Z,98.59
2022-09-28T01:25:22.202Z,98.07
2022-09-28T01:26:22.202Z,98.18
2022-09-28T01:27:22.193Z,98.07
2022-09-28T01:28:22.207Z,98.24
2022-09-28T01:29:22.188Z,98.07
2022-09-28T01:30:22.174Z,97.87
2022-09-28T01:31:22.173Z,98.24
2022-09-28T01:32:22.155Z,97.56
2022-09-28T01:33:22.170Z,98.13
2022-09-28T01:34:22.144Z,97.52
2022-09-28T01:35:22.135Z,97.97
2022-09-28T01:36:22.131Z,97.52
2022-09-28T01:37:22.124Z,97.31
2022-09-28T01:38:22.116Z,97.72
2022-09-28T01:39:22.127Z,97.62
2022-09-28T01:40:22.154Z,97.66
2022-09-28T01:41:22.102Z,97.77
2022-09-28T01:42:22.094Z,98.07
2022-09-28T01:43:22.082Z,98.07
2022-09-28T01:44:22.095Z,98.33
2022-09-28T01:45:22.070Z,98.49
2022-09-28T01:46:22.057Z,98.59
2022-09-28T01:47:22.046Z,98.38
2022-09-28T01:48:22.046Z,98.49
2022-09-28T01:49:22.055Z,98.54
2022-09-28T01:50:22.022Z,98.59
2022-09-28T01:51:22.027Z,98.69
2022-09-28T01:52:22.018Z,98.49
2022-09-28T01:53:22.014Z,98.49
2022-09-28T01:54:22.004Z,98.85
2022-09-28T01:55:22.007Z,98.69
2022-09-28T01:56:21.986Z,99.21
2022-09-28T01:57:21.997Z,99.72
2022-09-28T01:58:21.975Z,98.90
2022-09-28T01:59:21.962Z,99.72
2022-09-28T02:00:21.974Z,99.51
2022-09-28T02:01:22.010Z,99.10
2022-09-28T02:02:21.989Z,99.10
2022-09-28T02:03:21.934Z,99.99
2022-09-28T02:04:21.934Z,99.93
2022-09-28T02:05:21.946Z,99.82
2022-09-28T02:06:21.922Z,99.31
2022-09-28T02:07:21.914Z,99.82
2022-09-28T02:08:21.899Z,99.93
2022-09-28T02:09:21.894Z,99.82
2022-09-28T02:10:21.906Z,99.93
2022-09-28T02:11:21.889Z,99.72
2022-09-28T02:12:21.886Z,99.99
2022-09-28T02:13:21.870Z,99.99
2022-09-28T02:14:21.870Z,99.99
2022-09-28T02:15:21.858Z,99.93
2022-09-28T02:16:21.898Z,99.99
2022-09-28T02:17:21.860Z,99.99
2022-09-28T02:18:21.843Z,99.99
2022-09-28T02:19:21.854Z,99.99
2022-09-28T02:20:21.819Z,99.99
2022-09-28T02:21:21.814Z,99.99
2022-09-28T02:22:21.819Z,99.99
2022-09-28T02:23:21.798Z,99.99
2022-09-28T02:24:21.837Z,99.99
2022-09-28T02:25:21.778Z,99.99
2022-09-28T02:26:21.781Z,99.99
2022-09-28T02:27:21.783Z,99.99
2022-09-28T02:28:21.767Z,99.99
2022-09-28T02:29:21.787Z,99.99
2022-09-28T02:30:21.742Z,99.99
2022-09-28T02:31:21.775Z,99.99
2022-09-28T02:32:21.759Z,99.99
2022-09-28T02:33:21.741Z,99.99
2022-09-28T02:34:21.718Z,99.99
2022-09-28T02:35:21.718Z,99.99
2022-09-28T02:36:21.702Z,99.99
2022-09-28T02:37:21.722Z,99.99
2022-09-28T02:38:21.698Z,99.99
2022-09-28T02:39:21.690Z,99.99
2022-09-28T02:40:21.753Z,99.99
2022-09-28T02:41:21.679Z,99.99
2022-09-28T02:42:21.678Z,99.99
2022-09-28T02:43:21.675Z,99.99
2022-09-28T02:44:21.659Z,99.99
2022-09-28T02:45:21.642Z,99.99
2022-09-28T02:46:21.646Z,99.99
2022-09-28T02:47:21.634Z,99.99
2022-09-28T02:48:41.167Z,99.99
2022-09-28T02:49:23.763Z,99.99
2022-09-28T02:50:21.614Z,99.99
2022-09-28T02:51:21.611Z,99.99
2022-09-28T02:52:21.594Z,99.99
2022-09-28T02:53:21.610Z,99.99
2022-09-28T02:54:21.590Z,99.99
2022-09-28T02:55:21.573Z,99.99
2022-09-28T02:56:21.574Z,99.99
2022-09-28T02:57:21.571Z,99.99
2022-09-28T02:58:21.583Z,99.99
2022-09-28T02:59:21.554Z,99.99
2022-09-28T03:00:21.546Z,99.99
2022-09-28T03:01:21.612Z,99.99
2022-09-28T03:02:21.556Z,99.99
2022-09-28T03:03:21.533Z,99.99
2022-09-28T03:04:22.533Z,99.99
2022-09-28T03:05:21.493Z,99.99
2022-09-28T03:06:22.510Z,99.99
2022-09-28T03:07:21.502Z,99.99
2022-09-28T03:08:21.511Z,99.99
2022-09-28T03:09:21.489Z,99.99
2022-09-28T03:10:21.474Z,99.99
2022-09-28T03:11:21.475Z,99.99
2022-09-28T03:12:21.478Z,99.99
2022-09-28T03:13:21.473Z,99.99
2022-09-28T03:14:21.445Z,99.99
2022-09-28T03:15:21.450Z,99.99
2022-09-28T03:16:21.496Z,99.99
2022-09-28T03:17:21.431Z,99.99
2022-09-28T03:18:21.426Z,99.99
2022-09-28T03:19:21.433Z,99.99
2022-09-28T03:20:21.408Z,99.99
2022-09-28T03:21:21.397Z,99.99
2022-09-28T03:22:21.397Z,99.99
2022-09-28T03:23:25.455Z,99.99
2022-09-28T03:24:22.394Z,99.99
2022-09-28T03:25:21.375Z,99.99
2022-09-28T03:26:21.370Z,99.99
2022-09-28T03:27:21.354Z,99.99
2022-09-28T03:28:21.356Z,99.99
2022-09-28T03:29:21.358Z,99.99
2022-09-28T03:30:21.334Z,99.99
2022-09-28T03:31:21.369Z,99.99
2022-09-28T03:32:21.329Z,99.99
2022-09-28T03:33:21.321Z,99.99
2022-09-28T03:34:21.325Z,99.77
2022-09-28T03:35:21.306Z,99.97
2022-09-28T03:36:21.302Z,99.66
2022-09-28T03:37:21.286Z,99.99
2022-09-28T03:38:21.314Z,99.99
2022-09-28T03:39:21.282Z,99.87
2022-09-28T03:40:21.301Z,99.66
2022-09-28T03:41:21.265Z,99.97
2022-09-28T03:42:21.253Z,99.99
2022-09-28T03:43:21.254Z,99.99
2022-09-28T03:44:21.234Z,99.97
2022-09-28T03:45:21.234Z,99.99
2022-09-28T03:46:21.328Z,99.77
2022-09-28T03:47:21.218Z,99.99
2022-09-28T03:48:25.041Z,99.97
2022-09-28T03:49:23.201Z,99.82
2022-09-28T03:50:21.195Z,99.99
2022-09-28T03:51:21.205Z,99.77
2022-09-28T03:52:21.193Z,99.93
2022-09-28T03:53:21.175Z,99.77
2022-09-28T03:54:21.173Z,99.99
2022-09-28T03:55:21.178Z,99.99
2022-09-28T03:56:21.165Z,99.93
2022-09-28T03:57:21.158Z,99.87
2022-09-28T03:58:21.136Z,99.99
2022-09-28T03:59:21.141Z,99.99
2022-09-28T04:00:21.133Z,99.99
2022-09-28T04:01:21.170Z,99.99
2022-09-28T04:02:21.164Z,99.99
2022-09-28T04:03:21.102Z,99.99
2022-09-28T04:04:21.094Z,99.99
2022-09-28T04:05:21.093Z,99.99
2022-09-28T04:06:21.117Z,99.99
2022-09-28T04:07:21.071Z,99.99
2022-09-28T04:08:22.057Z,99.97
2022-09-28T04:09:21.053Z,99.99
2022-09-28T04:10:21.049Z,99.99
2022-09-28T04:11:21.053Z,99.97
2022-09-28T04:12:21.041Z,99.77
2022-09-28T04:13:21.035Z,99.77
2022-09-28T04:14:21.021Z,99.97
2022-09-28T04:15:21.018Z,99.97
2022-09-28T04:16:21.072Z,99.87
2022-09-28T04:17:21.001Z,99.77
2022-09-28T04:18:21.002Z,99.99
2022-09-28T04:19:21.032Z,99.46
2022-09-28T04:20:21.006Z,99.46
2022-09-28T04:21:21.100Z,99.99
2022-09-28T04:22:20.964Z,99.87
2022-09-28T04:23:20.957Z,99.97
2022-09-28T04:24:20.949Z,99.97
2022-09-28T04:25:20.953Z,99.77
2022-09-28T04:26:20.945Z,99.97
2022-09-28T04:27:20.937Z,99.87
2022-09-28T04:28:20.929Z,99.87
2022-09-28T04:29:21.126Z,99.25
2022-09-28T04:30:20.911Z,98.84
2022-09-28T04:31:20.918Z,99.62
2022-09-28T04:32:20.918Z,98.90
2022-09-28T04:33:20.893Z,98.79
2022-09-28T04:34:20.875Z,98.28
2022-09-28T04:35:20.886Z,99.00
2022-09-28T04:36:20.861Z,98.90
2022-09-28T04:37:20.865Z,98.79
2022-09-28T04:38:35.901Z,98.79
2022-09-28T04:39:22.849Z,98.90
2022-09-28T04:40:20.856Z,98.79
2022-09-28T04:41:20.845Z,99.72
2022-09-28T04:42:20.865Z,99.93
2022-09-28T04:43:20.814Z,99.41
2022-09-28T04:44:20.813Z,98.79
2022-09-28T04:45:20.821Z,98.28
2022-09-28T04:46:20.821Z,99.72
2022-09-28T04:47:20.813Z,99.62
2022-09-28T04:48:20.781Z,98.69
2022-09-28T04:49:20.785Z,98.79
2022-09-28T04:50:20.770Z,98.49
2022-09-28T04:51:20.761Z,98.79
2022-09-28T04:52:20.753Z,98.96
2022-09-28T04:53:20.793Z,98.38
2022-09-28T04:54:20.741Z,98.28
2022-09-28T04:55:20.734Z,98.90
2022-09-28T04:56:20.725Z,98.85
2022-09-28T04:57:20.718Z,98.75
2022-09-28T04:58:20.721Z,98.79
2022-09-28T04:59:20.693Z,99.57
2022-09-28T05:00:20.705Z,98.79
2022-09-28T05:01:20.764Z,99.16
2022-09-28T05:02:20.705Z,99.21
2022-09-28T05:03:20.677Z,98.79
2022-09-28T05:04:25.639Z,99.57
2022-09-28T05:05:22.657Z,99.62
2022-09-28T05:06:20.649Z,98.79
2022-09-28T05:07:20.651Z,98.79
2022-09-28T05:08:20.644Z,99.41
2022-09-28T05:09:20.658Z,98.69
2022-09-28T05:10:20.625Z,99.21
2022-09-28T05:11:20.629Z,98.90
2022-09-28T05:12:20.612Z,99.72
2022-09-28T05:13:20.604Z,99.21
2022-09-28T05:14:20.593Z,98.54
2022-09-28T05:15:20.613Z,98.54
2022-09-28T05:16:20.683Z,98.65
2022-09-28T05:17:20.589Z,99.57
2022-09-28T05:18:20.582Z,99.67
2022-09-28T05:19:20.567Z,99.83
2022-09-28T05:20:20.578Z,99.16
2022-09-28T05:21:20.549Z,98.39
2022-09-28T05:22:20.541Z,98.80
2022-09-28T05:23:20.542Z,98.39
2022-09-28T05:24:20.545Z,97.99
2022-09-28T05:25:20.534Z,98.39
2022-09-28T05:26:20.524Z,98.60
2022-09-28T05:27:20.551Z,98.19
2022-09-28T05:28:20.493Z,97.88
2022-09-28T05:29:20.500Z,97.78
2022-09-28T05:30:20.505Z,97.78
2022-09-28T05:31:20.519Z,98.08
2022-09-28T05:32:20.474Z,97.67
2022-09-28T05:33:20.470Z,97.73
2022-09-28T05:34:20.448Z,97.67
2022-09-28T05:35:20.480Z,97.53
2022-09-28T05:36:20.460Z,97.99
2022-09-28T05:37:20.452Z,97.99
2022-09-28T05:38:20.436Z,98.08
2022-09-28T05:39:20.436Z,97.53
2022-09-28T05:40:20.490Z,97.57
2022-09-28T05:41:20.416Z,97.47
2022-09-28T05:42:20.408Z,97.63
2022-09-28T05:43:20.409Z,97.42
2022-09-28T05:44:20.423Z,97.42
2022-09-28T05:45:20.401Z,97.67
2022-09-28T05:46:20.475Z,97.57
2022-09-28T05:47:20.400Z,97.06
2022-09-28T05:48:20.364Z,97.53
2022-09-28T05:49:20.360Z,97.47
2022-09-28T05:50:20.354Z,97.88
2022-09-28T05:51:20.344Z,97.37
2022-09-28T05:52:20.360Z,97.47
2022-09-28T05:53:20.331Z,97.06
2022-09-28T05:54:20.488Z,97.82
2022-09-28T05:55:20.318Z,97.10
2022-09-28T05:56:20.304Z,95.97
2022-09-28T05:57:20.301Z,95.97
2022-09-28T05:58:20.316Z,95.15
2022-09-28T05:59:20.282Z,94.84
2022-09-28T06:00:20.288Z,94.64
2022-09-28T06:01:20.320Z,94.54
2022-09-28T06:02:20.328Z,94.27
2022-09-28T06:03:20.276Z,93.92
2022-09-28T06:04:20.260Z,94.33
2022-09-28T06:05:20.244Z,94.54
2022-09-28T06:06:20.240Z,94.54
2022-09-28T06:07:20.241Z,94.54
2022-09-28T06:08:20.217Z,95.10
2022-09-28T06:09:25.142Z,94.64
2022-09-28T06:10:21.212Z,94.49
2022-09-28T06:11:21.200Z,94.08
2022-09-28T06:12:20.197Z,93.87
2022-09-28T06:13:20.192Z,94.23
2022-09-28T06:14:20.196Z,93.67
2022-09-28T06:15:20.185Z,93.46
2022-09-28T06:16:20.224Z,93.61
2022-09-28T06:17:20.178Z,93.92
2022-09-28T06:18:20.185Z,93.40
2022-09-28T06:19:20.152Z,93.98
2022-09-28T06:20:20.156Z,94.39
2022-09-28T06:21:20.133Z,93.98
2022-09-28T06:22:20.130Z,93.05
2022-09-28T06:23:20.124Z,93.05
2022-09-28T06:24:20.116Z,93.67
2022-09-28T06:25:20.124Z,94.04
2022-09-28T06:26:20.088Z,93.87
2022-09-28T06:27:20.100Z,93.52
2022-09-28T06:28:20.084Z,93.98
2022-09-28T06:29:20.091Z,93.83
2022-09-28T06:30:20.093Z,93.38
2022-09-28T06:31:20.126Z,93.17
2022-09-28T06:32:20.047Z,92.66
2022-09-28T06:33:20.052Z,92.97
2022-09-28T06:34:20.056Z,93.23
2022-09-28T06:35:20.049Z,92.21
2022-09-28T06:36:20.036Z,92.31
2022-09-28T06:37:20.038Z,92.31
2022-09-28T06:38:20.020Z,92.47
2022-09-28T06:39:20.012Z,92.78
2022-09-28T06:40:20.077Z,91.65
2022-09-28T06:41:19.988Z,90.52
2022-09-28T06:42:20.000Z,90.73
2022-09-28T06:43:19.992Z,90.93
2022-09-28T06:44:19.992Z,91.03
2022-09-28T06:45:20.007Z,90.79
2022-09-28T06:46:20.071Z,89.76
2022-09-28T06:47:19.956Z,89.36
2022-09-28T06:48:19.965Z,89.87
2022-09-28T06:49:19.956Z,89.45
2022-09-28T06:50:19.939Z,90.34
2022-09-28T06:51:19.928Z,89.31
2022-09-28T06:52:19.937Z,89.92
2022-09-28T06:53:19.911Z,90.75
2022-09-28T06:54:19.911Z,89.58
2022-09-28T06:55:19.909Z,89.47
2022-09-28T06:56:19.919Z,89.74
2022-09-28T06:57:19.897Z,88.00
2022-09-28T06:58:19.889Z,88.41
2022-09-28T06:59:19.892Z,88.62
2022-09-28T07:00:19.870Z,88.64
2022-09-28T07:01:19.953Z,88.74
2022-09-28T07:02:19.887Z,87.98
2022-09-28T07:03:19.853Z,87.98
2022-09-28T07:04:19.848Z,86.51
2022-09-28T07:05:19.847Z,86.12
2022-09-28T07:06:19.839Z,83.43
2022-09-28T07:07:19.837Z,84.45
2022-09-28T07:08:19.828Z,81.70
2022-09-28T07:09:31.489Z,84.14
2022-09-28T07:10:21.809Z,84.86
2022-09-28T07:11:19.816Z,84.75
2022-09-28T07:12:19.792Z,84.86
2022-09-28T07:13:46.331Z,83.73
2022-09-28T07:14:42.914Z,83.33
2022-09-28T07:15:21.771Z,82.61
2022-09-28T07:16:25.659Z,84.17
2022-09-28T07:17:20.826Z,84.84
2022-09-28T07:18:19.821Z,85.05
2022-09-28T07:19:19.744Z,82.13
2022-09-28T07:20:20.034Z,81.62
2022-09-28T07:21:29.201Z,83.15
2022-09-28T07:22:31.972Z,83.45
2022-09-28T07:23:21.721Z,82.74
2022-09-28T07:24:20.235Z,86.29
2022-09-28T07:25:19.700Z,86.08
2022-09-28T07:26:23.185Z,82.73
2022-09-28T07:27:22.553Z,81.60
2022-09-28T07:28:19.712Z,82.62
2022-09-28T07:29:19.685Z,81.60
2022-09-28T07:30:19.676Z,84.60
2022-09-28T07:31:19.709Z,82.10
2022-09-28T07:32:19.666Z,80.72
2022-09-28T07:33:19.659Z,78.28
2022-09-28T07:34:19.647Z,77.87
2022-09-28T07:35:20.667Z,77.50
2022-09-28T07:36:19.636Z,77.09
2022-09-28T07:37:19.643Z,79.10
2022-09-28T07:38:19.636Z,79.72
2022-09-28T07:39:19.617Z,78.09
2022-09-28T07:40:19.697Z,73.65
2022-09-28T07:41:19.608Z,72.07
2022-09-28T07:42:19.593Z,68.33
2022-09-28T07:43:19.585Z,61.76
2022-09-28T07:44:19.584Z,68.43
2022-09-28T07:45:19.597Z,69.88
2022-09-28T07:46:19.620Z,69.24
2022-09-28T07:47:19.556Z,69.81
2022-09-28T07:48:19.556Z,72.85
2022-09-28T07:49:19.621Z,74.41
2022-09-28T07:50:19.563Z,74.17
2022-09-28T07:51:19.527Z,72.17
2022-09-28T07:52:19.516Z,70.72
2022-09-28T07:53:19.516Z,70.55
2022-09-28T07:54:19.505Z,72.41
2022-09-28T07:55:19.521Z,72.52
2022-09-28T07:56:19.496Z,74.65
2022-09-28T07:57:19.495Z,72.75
2022-09-28T07:58:19.486Z,72.78
2022-09-28T07:59:19.509Z,74.11
2022-09-28T08:00:19.472Z,73.80
2022-09-28T08:01:19.533Z,76.99
2022-09-28T08:02:19.507Z,81.13
2022-09-28T08:03:19.452Z,76.54
2022-09-28T08:04:19.441Z,73.73
2022-09-28T08:05:19.438Z,72.34
2022-09-28T08:06:19.428Z,72.58
2022-09-28T08:07:23.492Z,73.19
2022-09-28T08:08:20.446Z,67.79
2022-09-28T08:09:19.451Z,71.84
2022-09-28T08:10:19.405Z,70.96
2022-09-28T08:11:19.401Z,71.88
2022-09-28T08:12:19.384Z,69.68
2022-09-28T08:13:21.239Z,73.93
2022-09-28T08:14:19.384Z,67.18
2022-09-28T08:15:19.364Z,66.94
2022-09-28T08:16:19.493Z,69.68
2022-09-28T08:17:19.352Z,69.81
2022-09-28T08:18:19.344Z,71.97
2022-09-28T08:19:19.521Z,72.69
2022-09-28T08:20:19.328Z,75.39
2022-09-28T08:21:19.332Z,76.20
2022-09-28T08:22:19.337Z,75.39
2022-09-28T08:23:19.303Z,73.66
2022-09-28T08:24:19.490Z,73.06
2022-09-28T08:25:19.296Z,74.14
2022-09-28T08:26:19.288Z,74.24
2022-09-28T08:27:19.292Z,72.72
2022-09-28T08:28:19.280Z,71.26
2022-09-28T08:29:19.260Z,74.00
2022-09-28T08:30:19.256Z,69.37
2022-09-28T08:31:19.310Z,71.03
2022-09-28T08:32:19.232Z,68.08
2022-09-28T08:33:20.251Z,70.45
2022-09-28T08:34:19.375Z,72.17
2022-09-28T08:35:19.228Z,72.17
2022-09-28T08:36:19.229Z,71.70
2022-09-28T08:37:19.205Z,71.77
2022-09-28T08:38:19.203Z,71.80
2022-09-28T08:39:19.199Z,70.59
2022-09-28T08:40:19.240Z,71.09
2022-09-28T08:41:19.187Z,71.36
2022-09-28T08:42:19.178Z,70.28
2022-09-28T08:43:19.166Z,68.99
2022-09-28T08:44:19.152Z,67.83
2022-09-28T08:45:19.194Z,70.21
2022-09-28T08:46:22.699Z,72.28
2022-09-28T08:47:20.136Z,72.38
2022-09-28T08:48:19.128Z,72.48
2022-09-28T08:49:25.478Z,73.02
2022-09-28T08:50:21.137Z,73.33
2022-09-28T08:51:19.104Z,72.72
2022-09-28T08:52:19.123Z,72.34
2022-09-28T08:53:19.083Z,73.57
2022-09-28T08:54:19.126Z,72.58
2022-09-28T08:55:19.082Z,74.69
2022-09-28T08:56:19.077Z,72.86
2022-09-28T08:57:19.075Z,71.97
2022-09-28T08:58:19.058Z,74.45
2022-09-28T08:59:19.048Z,74.52
2022-09-28T09:00:19.035Z,72.92
2022-09-28T09:01:19.089Z,74.05
2022-09-28T09:02:19.075Z,75.03
2022-09-28T09:03:19.023Z,75.95
2022-09-28T09:04:19.152Z,73.30
2022-09-28T09:05:19.008Z,72.48
2022-09-28T09:06:18.999Z,74.73
2022-09-28T09:07:18.991Z,74.52
2022-09-28T09:08:18.993Z,73.36
2022-09-28T09:09:18.979Z,73.26
2022-09-28T09:10:18.967Z,73.47
2022-09-28T09:11:18.957Z,72.04
2022-09-28T09:12:18.960Z,72.11
2022-09-28T09:13:18.959Z,72.21
2022-09-28T09:14:18.974Z,73.13
2022-09-28T09:15:18.915Z,73.80
2022-09-28T09:16:19.003Z,74.01
2022-09-28T09:17:18.916Z,71.91
2022-09-28T09:18:20.000Z,70.52
2022-09-28T09:19:19.903Z,71.20
2022-09-28T09:20:18.880Z,69.79
2022-09-28T09:21:18.879Z,61.20
2022-09-28T09:22:18.887Z,58.95
2022-09-28T09:23:18.863Z,57.19
2022-09-28T09:24:19.021Z,55.80
2022-09-28T09:25:18.862Z,58.01
2022-09-28T09:26:23.755Z,55.58
2022-09-28T09:27:20.835Z,53.67
2022-09-28T09:28:18.827Z,54.24
2022-09-28T09:29:18.848Z,53.39
2022-09-28T09:30:20.405Z,51.52
2022-09-28T09:31:48.736Z,50.04
2022-09-28T09:32:49.755Z,50.62
2022-09-28T09:33:49.741Z,50.81
2022-09-28T09:34:49.760Z,50.46
2022-09-28T09:35:49.731Z,49.70
2022-09-28T09:36:49.747Z,53.22
2022-09-28T09:37:49.810Z,56.37
2022-09-28T09:38:49.700Z,57.71
2022-09-28T09:39:49.716Z,57.84
2022-09-28T09:40:49.853Z,58.43
2022-09-28T09:41:49.711Z,58.78
2022-09-28T09:42:49.688Z,61.27
2022-09-28T09:43:49.683Z,60.49
2022-09-28T09:44:49.745Z,60.58
2022-09-28T09:45:49.737Z,63.55
2022-09-28T09:46:49.679Z,63.34
2022-09-28T09:47:49.642Z,63.28
2022-09-28T09:48:49.643Z,65.03
2022-09-28T09:49:49.652Z,65.77
2022-09-28T09:50:49.632Z,69.46
2022-09-28T09:51:49.616Z,71.16
2022-09-28T09:52:49.645Z,73.54
2022-09-28T09:53:49.607Z,73.91
2022-09-28T09:54:49.599Z,74.55
2022-09-28T09:55:49.604Z,75.71
2022-09-28T09:56:49.596Z,77.14
2022-09-28T09:57:49.600Z,77.25
2022-09-28T09:58:49.578Z,77.14
2022-09-28T09:59:49.571Z,76.36
2022-09-28T10:00:49.555Z,76.97
2022-09-28T10:01:49.618Z,77.01
2022-09-28T10:02:49.644Z,78.23
2022-09-28T10:03:49.539Z,80.34
2022-09-28T10:04:49.552Z,77.96
2022-09-28T10:05:49.526Z,77.04
2022-09-28T10:06:49.524Z,77.34
2022-09-28T10:22:07.247Z,65.16
2022-09-28T10:23:08.332Z,62.08
2022-09-28T10:24:08.320Z,62.48
2022-09-28T10:25:08.310Z,53.59
2022-09-28T10:26:08.290Z,52.89
2022-09-28T10:27:08.299Z,53.67
2022-09-28T10:28:08.302Z,53.81
2022-09-28T10:29:08.283Z,50.12
2022-09-28T10:30:08.277Z,46.35
2022-09-28T10:32:08.260Z,46.50
2022-09-28T10:33:08.275Z,45.84
2022-09-28T10:34:08.252Z,47.91
2022-09-28T10:35:08.242Z,50.68
2022-09-28T10:36:08.244Z,52.19
2022-09-28T10:37:08.230Z,56.04
2022-09-28T10:38:08.233Z,52.26
2022-09-28T10:39:08.231Z,54.46
2022-09-28T10:40:08.211Z,56.12
2022-09-28T10:41:08.311Z,57.49
2022-09-28T10:42:08.198Z,58.76
2022-09-28T10:43:08.203Z,60.57
2022-09-28T10:44:08.195Z,62.21
2022-09-28T10:45:08.174Z,65.77
2022-09-28T10:46:08.278Z,60.26
2022-09-28T10:47:08.158Z,59.64
2022-09-28T10:48:08.154Z,56.24
2022-09-28T10:49:08.167Z,54.50
2022-09-28T10:50:08.143Z,54.30
2022-09-28T10:51:08.132Z,56.52
2022-09-28T10:52:08.126Z,49.19
2022-09-28T10:53:08.127Z,48.83
2022-09-28T10:54:08.111Z,51.81
2022-09-28T10:55:08.119Z,51.94
2022-09-28T10:56:08.106Z,53.09
2022-09-28T10:57:12.752Z,52.67
2022-09-28T10:58:09.095Z,53.47
2022-09-28T10:59:08.088Z,52.06
2022-09-28T11:00:08.079Z,52.74
2022-09-28T11:01:08.156Z,55.77
2022-09-28T11:02:08.132Z,58.45
2022-09-28T11:03:08.047Z,58.98
2022-09-28T11:04:08.067Z,59.18
2022-09-28T11:05:08.036Z,57.84
2022-09-28T11:06:08.034Z,56.05
2022-09-28T11:07:08.027Z,57.46
2022-09-28T11:08:08.030Z,57.16
2022-09-28T11:09:08.014Z,57.18
2022-09-28T11:10:08.019Z,58.65
2022-09-28T11:11:07.995Z,56.17
2022-09-28T11:12:07.990Z,55.77
2022-09-28T11:13:07.983Z,53.75
2022-09-28T11:14:07.971Z,52.56
2022-09-28T11:15:07.967Z,52.36
2022-09-28T11:16:07.959Z,56.02
2022-09-28T11:17:08.006Z,55.94
2022-09-28T11:18:07.974Z,56.48
2022-09-28T11:19:07.939Z,57.21
2022-09-28T11:20:07.946Z,55.73
2022-09-28T11:21:11.274Z,56.96
2022-09-28T11:22:11.534Z,58.31
2022-09-28T11:23:07.938Z,60.16
2022-09-28T11:24:07.908Z,59.55
2022-09-28T11:25:07.897Z,61.51
2022-09-28T11:26:07.898Z,60.08
2022-09-28T11:27:07.882Z,61.71
2022-09-28T11:28:07.886Z,62.11
2022-09-28T11:29:07.882Z,62.14
2022-09-28T11:30:08.878Z,62.04
2022-09-28T11:31:08.047Z,62.45
2022-09-28T11:32:09.605Z,63.59
2022-09-28T11:33:07.859Z,64.50
2022-09-28T11:34:07.842Z,65.65
2022-09-28T11:35:07.833Z,67.47
2022-09-28T11:36:07.823Z,69.17
2022-09-28T11:37:07.820Z,70.35
2022-09-28T11:38:07.818Z,70.79
2022-09-28T11:39:07.810Z,71.20
2022-09-28T11:40:07.798Z,71.53
2022-09-28T11:41:07.779Z,72.01
2022-09-28T11:42:07.791Z,72.82
2022-09-28T11:43:07.780Z,72.55
2022-09-28T11:44:07.787Z,72.92
2022-09-28T11:45:07.762Z,72.62
2022-09-28T11:46:07.798Z,71.91
2022-09-28T11:47:07.750Z,72.62
2022-09-28T11:48:07.750Z,72.48
2022-09-28T11:49:07.754Z,72.82
2022-09-28T11:50:07.730Z,68.87
2022-09-28T11:51:07.722Z,67.25
2022-09-28T11:52:07.711Z,65.80
2022-09-28T11:53:07.707Z,68.40
2022-09-28T11:54:07.726Z,62.85
2022-09-28T11:55:07.707Z,59.72
2022-09-28T11:56:09.021Z,58.40
2022-09-28T11:57:08.680Z,53.05
2022-09-28T11:58:07.678Z,55.51
2022-09-28T11:59:07.662Z,51.11
2022-09-28T12:00:07.674Z,52.34
2022-09-28T12:01:07.653Z,51.74
2022-09-28T12:02:07.696Z,52.01
2022-09-28T12:03:07.800Z,54.43
2022-09-28T12:04:07.634Z,58.48
2022-09-28T12:05:07.642Z,58.64
2022-09-28T12:06:07.852Z,59.81
2022-09-28T12:07:07.615Z,62.33
2022-09-28T12:08:07.599Z,64.01
2022-09-28T12:09:07.605Z,64.86
2022-09-28T12:10:07.595Z,66.00
2022-09-28T12:11:07.611Z,67.16
2022-09-28T12:12:07.585Z,67.26
2022-09-28T12:13:07.570Z,68.65
2022-09-28T12:14:07.571Z,70.00
2022-09-28T12:15:07.565Z,70.48
2022-09-28T12:16:27.681Z,70.48
2022-09-28T12:17:09.641Z,71.43
2022-09-28T12:18:07.587Z,70.31
2022-09-28T12:19:07.526Z,72.79
2022-09-28T12:20:07.523Z,72.96
2022-09-28T12:21:07.519Z,73.13
2022-09-28T12:22:07.517Z,70.75
2022-09-28T12:23:07.505Z,69.49
2022-09-28T12:24:07.490Z,70.62
2022-09-28T12:25:07.490Z,69.49
2022-09-28T12:26:07.482Z,69.57
2022-09-28T12:27:07.489Z,71.23
2022-09-28T12:28:07.472Z,69.85
2022-09-28T12:29:07.457Z,61.83
2022-09-28T12:30:07.520Z,62.76
2022-09-28T12:31:07.487Z,51.74
2022-09-28T12:32:07.457Z,50.71
2022-09-28T12:33:07.442Z,50.48
2022-09-28T12:34:07.426Z,51.81
2022-09-28T12:35:07.430Z,53.50
2022-09-28T12:36:07.418Z,49.31
2022-09-28T12:37:07.403Z,50.31
2022-09-28T12:38:07.402Z,51.54
2022-09-28T12:39:35.695Z,50.46
2022-09-28T12:40:09.386Z,50.03
2022-09-28T12:41:07.419Z,50.71
2022-09-28T12:42:07.373Z,53.47
2022-09-28T12:43:07.369Z,56.09
2022-09-28T12:44:07.367Z,53.72
2022-09-28T12:45:07.353Z,55.62
2022-09-28T12:46:11.972Z,59.87
2022-09-28T12:47:09.369Z,63.37
2022-09-28T12:48:07.349Z,64.72
2022-09-28T12:51:09.320Z,67.85
2022-09-28T12:52:07.302Z,68.32
2022-09-28T12:53:07.314Z,69.17
2022-09-28T12:54:07.294Z,69.91
2022-09-28T12:55:07.298Z,70.75
2022-09-28T12:56:07.273Z,70.68
2022-09-28T12:57:07.267Z,71.73
2022-09-28T12:58:07.262Z,71.26
2022-09-28T12:59:07.257Z,72.82
2022-09-28T13:00:07.253Z,73.54
2022-09-28T13:01:07.285Z,73.77
2022-09-28T13:02:07.269Z,75.13
2022-09-28T13:03:07.241Z,74.93
2022-09-28T13:04:11.427Z,74.66
2022-09-28T13:05:08.218Z,75.98
2022-09-28T13:06:07.238Z,76.29
2022-09-28T13:07:07.203Z,75.44
2022-09-28T13:08:07.198Z,75.95
2022-09-28T13:09:07.213Z,76.25
2022-09-28T13:10:07.203Z,74.42